Time;durP1;ratioP1;P1;durP2;ratioP2;P2;SDS_P1;SDS_P2;PMS_P1;PMS_P2;Temp;Humidity;BMP_temperature;BMP_pressure;BME280_temperature;BME280_humidity;BME280_pressure;Samples;Min_cycle;Max_cycle;Signal;HPM_P1;HPM_P2
2023/03/23 00:02:25;;;;;;;;;;;12.30;99.90;;;;;;6212152;23;19908;-82
2023/03/23 00:04:51;;;;;;;;;;;12.20;99.90;;;;;;6185719;23;19907;-81
2023/03/23 00:07:21;;;;;;;;;;;12.30;99.90;;;;;;6212062;23;19904;-81
2023/03/23 00:09:52;;;;;;;;;;;12.30;99.90;;;;;;6212693;23;19899;-82
2023/03/23 00:12:18;;;;;;;;;;;12.30;99.90;;;;;;6212364;23;19907;-83
2023/03/23 00:14:44;;;;;;;;;;;12.30;99.90;;;;;;6212273;23;20241;-82
2023/03/23 00:17:10;;;;;;;;;;;12.30;99.90;;;;;;6212252;23;19900;-82
2023/03/23 00:19:45;;;;;;;;;;;12.30;99.90;;;;;;6212368;23;19910;-81
2023/03/23 00:22:14;;;;;;;;;;;12.30;99.90;;;;;;6211663;23;20245;-82
2023/03/23 00:24:40;;;;;;;;;;;12.30;99.90;;;;;;6212239;23;19906;-84
2023/03/23 00:27:05;;;;;;;;;;;12.30;99.90;;;;;;6213333;23;19986;-82
2023/03/23 00:29:32;;;;;;;;;;;12.30;99.90;;;;;;6212175;23;19953;-82
2023/03/23 00:31:57;;;;;;;;;;;12.30;99.90;;;;;;6212002;23;19954;-84
2023/03/23 00:34:24;;;;;;;;;;;12.30;99.90;;;;;;6211354;23;19900;-83
2023/03/23 00:36:53;;;;;;;;;;;12.30;99.90;;;;;;6212162;23;19954;-82
2023/03/23 00:39:18;;;;;;;;;;;12.40;99.90;;;;;;6212157;23;20049;-85
2023/03/23 00:41:45;;;;;;;;;;;12.30;99.90;;;;;;6211925;23;20345;-82
2023/03/23 00:44:16;;;;;;;;;;;12.40;99.90;;;;;;6211864;23;19899;-82
2023/03/23 00:46:44;;;;;;;;;;;12.40;99.90;;;;;;6212085;23;20369;-83
2023/03/23 00:49:13;;;;;;;;;;;12.50;99.90;;;;;;6211221;23;20004;-82
2023/03/23 00:51:39;;;;;;;;;;;12.30;99.90;;;;;;6212047;23;19900;-82
2023/03/23 00:54:05;;;;;;;;;;;12.30;99.90;;;;;;6212902;23;19928;-82
2023/03/23 00:56:30;;;;;;;;;;;12.30;99.90;;;;;;6211945;23;19907;-82
2023/03/23 00:58:56;;;;;;;;;;;12.30;99.90;;;;;;6211907;23;19900;-84
2023/03/23 01:01:22;;;;;;;;;;;12.20;99.90;;;;;;6212447;23;19908;-82
2023/03/23 01:03:47;;;;;;;;;;;12.20;99.90;;;;;;6211742;23;19906;-85
2023/03/23 01:06:13;;;;;;;;;;;12.20;99.90;;;;;;6211774;23;19900;-82
2023/03/23 01:08:48;;;;;;;;;;;12.30;99.90;;;;;;6212301;23;19900;-82
2023/03/23 01:11:16;;;;;;;;;;;12.20;99.90;;;;;;6211546;23;19900;-81
2023/03/23 01:13:42;;;;;;;;;;;12.20;99.90;;;;;;6211569;23;19904;-81
2023/03/23 01:16:08;;;;;;;;;;;12.30;99.90;;;;;;6212507;23;20328;-85
2023/03/23 01:18:33;;;;;;;;;;;12.30;99.90;;;;;;6211814;23;19907;-84
2023/03/23 01:21:03;;;;;;;;;;;12.30;99.90;;;;;;6210481;23;19912;-82
2023/03/23 01:23:29;;;;;;;;;;;12.30;99.90;;;;;;6211483;23;19907;-82
2023/03/23 01:25:57;;;;;;;;;;;12.30;99.90;;;;;;6211413;23;19900;-83
2023/03/23 01:28:23;;;;;;;;;;;12.20;99.90;;;;;;6211691;23;19899;-82
2023/03/23 01:30:48;;;;;;;;;;;12.30;99.90;;;;;;6184580;23;19900;-82
2023/03/23 01:33:14;;;;;;;;;;;12.30;99.90;;;;;;6211874;23;19947;-85
2023/03/23 01:35:39;;;;;;;;;;;12.30;99.90;;;;;;6213466;23;20007;-86
2023/03/23 01:38:05;;;;;;;;;;;12.20;99.90;;;;;;6214928;23;19907;-84
2023/03/23 01:40:30;;;;;;;;;;;12.20;99.90;;;;;;6213430;23;20192;-84
2023/03/23 01:42:56;;;;;;;;;;;12.20;99.90;;;;;;6213768;23;19911;-83
2023/03/23 01:45:24;;;;;;;;;;;12.30;99.90;;;;;;6214399;23;19899;-84
2023/03/23 01:47:52;;;;;;;;;;;12.30;99.90;;;;;;6214035;23;20272;-82
2023/03/23 01:50:20;;;;;;;;;;;12.20;99.90;;;;;;6213905;23;19931;-82
2023/03/23 01:52:46;;;;;;;;;;;12.10;99.90;;;;;;6212462;23;19923;-84
2023/03/23 01:55:12;;;;;;;;;;;12.20;99.90;;;;;;6212804;23;19900;-86
2023/03/23 01:57:37;;;;;;;;;;;12.20;99.90;;;;;;6212040;23;19907;-83
2023/03/23 02:00:09;;;;;;;;;;;12.10;99.90;;;;;;6210867;23;19904;-84
2023/03/23 02:02:35;;;;;;;;;;;12.10;99.90;;;;;;6211660;23;19987;-84
2023/03/23 02:05:04;;;;;;;;;;;12.20;99.90;;;;;;6211543;23;20354;-88
2023/03/23 02:07:29;;;;;;;;;;;12.10;99.90;;;;;;6211418;23;19899;-83
2023/03/23 02:09:55;;;;;;;;;;;12.10;99.90;;;;;;6211344;23;20336;-85
2023/03/23 02:12:21;;;;;;;;;;;12.20;99.90;;;;;;6211080;23;19907;-85
2023/03/23 02:14:46;;;;;;;;;;;12.20;99.90;;;;;;6211361;23;19931;-81
2023/03/23 02:17:26;;;;;;;;;;;12.10;99.90;;;;;;6184926;23;19908;-83
2023/03/23 02:20:06;;;;;;;;;;;12.10;99.90;;;;;;6210387;23;19982;-83
2023/03/23 02:22:47;;;;;;;;;;;12.10;99.90;;;;;;6184169;23;19907;-86
2023/03/23 02:25:13;;;;;;;;;;;12.10;99.90;;;;;;6212507;23;19900;-83
2023/03/23 02:27:52;;;;;;;;;;;12.10;99.90;;;;;;6184311;23;20218;-82
2023/03/23 02:30:18;;;;;;;;;;;12.10;99.90;;;;;;6211086;23;19900;-82
2023/03/23 02:32:55;;;;;;;;;;;12.20;99.90;;;;;;6212020;23;19992;-83
2023/03/23 02:35:23;;;;;;;;;;;12.10;99.90;;;;;;6210886;23;19954;-84
2023/03/23 02:37:52;;;;;;;;;;;12.20;99.90;;;;;;6211139;23;19950;-83
2023/03/23 02:40:39;;;;;;;;;;;12.10;99.90;;;;;;6184432;23;20038;-82
2023/03/23 02:43:07;;;;;;;;;;;12.10;99.90;;;;;;6211005;23;19914;-83
2023/03/23 02:45:34;;;;;;;;;;;12.10;99.90;;;;;;6184532;23;19907;-84
2023/03/23 02:48:01;;;;;;;;;;;12.10;99.90;;;;;;6210821;23;20284;-83
2023/03/23 02:50:27;;;;;;;;;;;12.10;99.90;;;;;;6210991;23;19900;-82
2023/03/23 02:52:54;;;;;;;;;;;12.10;99.90;;;;;;6210900;23;19904;-83
2023/03/23 02:55:22;;;;;;;;;;;12.10;99.90;;;;;;6210903;23;20391;-82
2023/03/23 02:57:49;;;;;;;;;;;12.10;99.90;;;;;;6211168;23;19900;-87
2023/03/23 03:00:16;;;;;;;;;;;12.10;99.90;;;;;;6211169;23;19900;-83
2023/03/23 03:02:52;;;;;;;;;;;12.90;99.90;;;;;;6212011;23;19907;-82
2023/03/23 03:05:38;;;;;;;;;;;12.10;99.90;;;;;;6211169;23;19899;-84
2023/03/23 03:08:09;;;;;;;;;;;12.10;99.90;;;;;;6210865;23;19900;-84
2023/03/23 03:10:38;;;;;;;;;;;12.10;99.90;;;;;;6210175;23;19899;-83
2023/03/23 03:13:13;;;;;;;;;;;12.10;99.90;;;;;;6210980;23;19904;-84
2023/03/23 03:15:46;;;;;;;;;;;12.10;99.90;;;;;;6210355;23;19903;-83
2023/03/23 03:18:18;;;;;;;;;;;12.00;99.90;;;;;;6210952;23;20423;-82
2023/03/23 03:20:46;;;;;;;;;;;12.00;99.90;;;;;;6211587;23;19977;-89
2023/03/23 03:23:12;;;;;;;;;;;11.90;99.90;;;;;;6211799;23;20225;-86
2023/03/23 03:25:40;;;;;;;;;;;11.90;99.90;;;;;;6209969;23;20329;-81
2023/03/23 03:28:06;;;;;;;;;;;11.90;99.90;;;;;;6210353;23;20555;-86
2023/03/23 03:30:34;;;;;;;;;;;11.90;99.90;;;;;;6210912;23;19900;-83
2023/03/23 03:33:02;;;;;;;;;;;11.80;99.90;;;;;;6183692;23;19906;-82
2023/03/23 03:35:29;;;;;;;;;;;11.80;99.90;;;;;;6212188;23;19961;-83
2023/03/23 03:37:54;;;;;;;;;;;11.70;99.90;;;;;;6185389;23;19900;-83
2023/03/23 03:40:21;;;;;;;;;;;11.70;99.90;;;;;;6212424;23;19907;-83
2023/03/23 03:42:47;;;;;;;;;;;11.80;99.90;;;;;;6212304;23;19907;-84
2023/03/23 03:45:17;;;;;;;;;;;11.30;99.90;;;;;;6213478;23;19900;-85
2023/03/23 03:47:43;;;;;;;;;;;12.00;99.90;;;;;;6186841;23;19900;-84
2023/03/23 03:50:09;;;;;;;;;;;11.70;99.90;;;;;;6212352;23;19987;-86
2023/03/23 03:52:35;;;;;;;;;;;11.80;99.90;;;;;;6212884;23;20272;-84
2023/03/23 03:55:00;;;;;;;;;;;11.80;99.90;;;;;;6211166;23;19990;-84
2023/03/23 03:57:26;;;;;;;;;;;11.80;99.90;;;;;;6212381;23;20336;-85
2023/03/23 03:59:52;;;;;;;;;;;12.10;99.90;;;;;;6211733;23;19936;-85
2023/03/23 04:02:19;;;;;;;;;;;12.10;99.90;;;;;;6213290;23;19961;-86
2023/03/23 04:04:51;;;;;;;;;;;12.00;99.90;;;;;;6186414;23;19899;-84
2023/03/23 04:07:17;;;;;;;;;;;11.90;99.90;;;;;;6213103;23;19927;-86
2023/03/23 04:09:46;;;;;;;;;;;11.90;99.90;;;;;;6211814;23;20313;-85
2023/03/23 04:12:12;;;;;;;;;;;12.00;99.90;;;;;;6185631;23;19990;-84
2023/03/23 04:14:38;;;;;;;;;;;12.00;99.90;;;;;;6185662;23;20022;-84
2023/03/23 04:17:03;;;;;;;;;;;12.00;99.90;;;;;;6185338;23;19955;-85
2023/03/23 04:19:32;;;;;;;;;;;12.00;99.90;;;;;;6211799;23;19982;-84
2023/03/23 04:21:58;;;;;;;;;;;12.10;99.90;;;;;;6211357;23;20352;-84
2023/03/23 04:24:24;;;;;;;;;;;12.10;99.90;;;;;;6212069;23;19900;-86
2023/03/23 04:26:51;;;;;;;;;;;12.10;99.90;;;;;;6211324;23;19907;-88
2023/03/23 04:29:19;;;;;;;;;;;12.00;99.90;;;;;;6212056;23;19974;-87
2023/03/23 04:31:45;;;;;;;;;;;12.10;99.90;;;;;;6211503;23;19904;-88
2023/03/23 04:34:13;;;;;;;;;;;12.00;99.90;;;;;;6183953;23;20204;-90
2023/03/23 04:36:39;;;;;;;;;;;12.10;99.90;;;;;;6185176;23;19904;-89
2023/03/23 04:39:09;;;;;;;;;;;12.10;99.90;;;;;;6212213;23;19899;-88
2023/03/23 04:41:35;;;;;;;;;;;12.10;99.90;;;;;;6184640;23;19912;-88
2023/03/23 04:44:04;;;;;;;;;;;12.10;99.90;;;;;;6211195;23;19903;-87
2023/03/23 04:46:30;;;;;;;;;;;12.20;99.90;;;;;;6211321;23;19900;-88
2023/03/23 04:48:58;;;;;;;;;;;12.10;99.90;;;;;;6210736;23;19924;-88
2023/03/23 04:51:24;;;;;;;;;;;12.00;99.90;;;;;;6185672;23;19900;-89
2023/03/23 04:53:50;;;;;;;;;;;12.10;99.90;;;;;;6208082;23;20510;-87
2023/03/23 04:56:16;;;;;;;;;;;12.20;99.90;;;;;;6182199;23;20399;-87
2023/03/23 04:58:43;;;;;;;;;;;12.10;99.90;;;;;;6181801;23;20220;-89
2023/03/23 05:01:09;;;;;;;;;;;12.20;99.90;;;;;;6184659;23;20387;-88
2023/03/23 05:03:34;;;;;;;;;;;12.10;99.90;;;;;;6184880;23;19903;-88
2023/03/23 05:06:01;;;;;;;;;;;12.10;99.90;;;;;;6184902;23;19923;-88
2023/03/23 05:08:27;;;;;;;;;;;12.10;99.90;;;;;;6211273;23;19910;-91
2023/03/23 05:10:55;;;;;;;;;;;12.20;99.90;;;;;;6211704;23;19923;-87
2023/03/23 05:13:21;;;;;;;;;;;12.20;99.90;;;;;;6185982;23;19904;-88
2023/03/23 05:15:47;;;;;;;;;;;12.20;99.90;;;;;;6185218;23;19950;-89
2023/03/23 05:18:12;;;;;;;;;;;12.20;99.90;;;;;;6185548;23;20233;-89
2023/03/23 05:20:38;;;;;;;;;;;12.20;99.90;;;;;;6185014;23;19908;-88
2023/03/23 05:23:04;;;;;;;;;;;12.20;99.90;;;;;;6185458;23;20254;-89
2023/03/23 05:25:30;;;;;;;;;;;12.20;99.90;;;;;;6211985;23;19899;-90
2023/03/23 05:27:55;;;;;;;;;;;12.20;99.90;;;;;;6185788;23;19899;-91
2023/03/23 05:30:21;;;;;;;;;;;12.20;99.90;;;;;;6186077;23;19918;-88
2023/03/23 05:32:50;;;;;;;;;;;12.20;99.90;;;;;;6212093;23;20388;-89
2023/03/23 05:35:17;;;;;;;;;;;12.20;99.90;;;;;;6212411;23;19903;-89
2023/03/23 05:37:43;;;;;;;;;;;12.20;99.90;;;;;;6211526;23;19931;-90
2023/03/23 05:40:09;;;;;;;;;;;12.20;99.90;;;;;;6185357;23;20248;-89
2023/03/23 05:42:35;;;;;;;;;;;12.10;99.90;;;;;;6211383;23;19908;-88
2023/03/23 05:45:04;;;;;;;;;;;12.20;99.90;;;;;;6209901;23;19974;-88
2023/03/23 05:47:30;;;;;;;;;;;12.10;99.90;;;;;;6210336;23;19900;-87
2023/03/23 05:49:56;;;;;;;;;;;12.20;99.90;;;;;;6210556;23;19979;-86
2023/03/23 05:52:23;;;;;;;;;;;12.10;99.90;;;;;;6212340;23;19900;-88
2023/03/23 05:54:49;;;;;;;;;;;12.10;99.90;;;;;;6211006;23;19900;-87
2023/03/23 05:57:15;;;;;;;;;;;12.10;99.90;;;;;;6211429;23;20267;-91
2023/03/23 05:59:40;;;;;;;;;;;12.10;99.90;;;;;;6211243;23;19899;-91
2023/03/23 06:02:06;;;;;;;;;;;12.10;99.90;;;;;;6211195;23;20003;-89
2023/03/23 06:04:33;;;;;;;;;;;12.10;99.90;;;;;;6211344;23;19900;-92
2023/03/23 06:07:02;;;;;;;;;;;12.10;99.90;;;;;;6186263;23;19900;-89
2023/03/23 06:09:27;;;;;;;;;;;12.10;99.90;;;;;;6211491;23;19907;-89
2023/03/23 06:11:53;;;;;;;;;;;12.10;99.90;;;;;;6212279;23;19899;-90
2023/03/23 06:14:18;;;;;;;;;;;12.10;99.90;;;;;;6184945;23;19900;-90
2023/03/23 06:16:44;;;;;;;;;;;12.20;99.90;;;;;;6211417;23;20245;-91
2023/03/23 06:19:11;;;;;;;;;;;12.10;99.90;;;;;;6184558;23;19907;-93
2023/03/23 06:21:36;;;;;;;;;;;12.10;99.90;;;;;;6183795;23;19911;-88
2023/03/23 06:24:03;;;;;;;;;;;12.10;99.90;;;;;;6211559;23;19987;-87
2023/03/23 06:26:33;;;;;;;;;;;12.10;99.90;;;;;;6184653;23;19900;-90
2023/03/23 06:28:58;;;;;;;;;;;12.20;99.90;;;;;;6184624;23;19907;-90
2023/03/23 06:31:24;;;;;;;;;;;12.20;99.90;;;;;;6185532;23;19900;-88
2023/03/23 06:33:51;;;;;;;;;;;12.20;99.90;;;;;;6211215;23;19900;-91
2023/03/23 06:36:16;;;;;;;;;;;12.10;99.90;;;;;;6183932;23;19911;-90
2023/03/23 06:38:42;;;;;;;;;;;12.20;99.90;;;;;;6211794;23;19900;-90
2023/03/23 06:41:08;;;;;;;;;;;12.20;99.90;;;;;;6183711;23;19911;-91
2023/03/23 06:43:36;;;;;;;;;;;12.20;99.90;;;;;;6211511;23;19900;-89
2023/03/23 06:46:01;;;;;;;;;;;12.20;99.90;;;;;;6184553;23;20225;-90
2023/03/23 06:48:27;;;;;;;;;;;12.20;99.90;;;;;;6212228;23;20351;-89
2023/03/23 06:50:53;;;;;;;;;;;12.30;99.90;;;;;;6211713;23;19907;-91
2023/03/23 06:53:20;;;;;;;;;;;12.20;99.90;;;;;;6210924;23;19904;-89
2023/03/23 06:55:46;;;;;;;;;;;12.30;99.90;;;;;;6184712;23;19928;-89
2023/03/23 06:58:12;;;;;;;;;;;12.40;99.90;;;;;;6210387;23;19923;-91
2023/03/23 07:00:38;;;;;;;;;;;12.40;99.90;;;;;;6184791;23;20317;-90
2023/03/23 07:03:04;;;;;;;;;;;12.40;99.90;;;;;;6184706;23;19904;-91
2023/03/23 07:05:30;;;;;;;;;;;12.70;99.90;;;;;;6211944;23;19983;-90
2023/03/23 07:07:55;;;;;;;;;;;12.50;99.90;;;;;;6211492;23;19976;-90
2023/03/23 07:10:21;;;;;;;;;;;12.50;99.90;;;;;;6185891;23;19955;-89
2023/03/23 07:12:46;;;;;;;;;;;12.50;99.90;;;;;;6213460;23;19904;-91
2023/03/23 07:15:12;;;;;;;;;;;12.60;99.90;;;;;;6213265;23;19927;-90
2023/03/23 07:17:38;;;;;;;;;;;12.60;99.90;;;;;;6213308;23;19907;-90
2023/03/23 07:20:04;;;;;;;;;;;12.60;99.90;;;;;;6212344;23;20336;-90
2023/03/23 07:22:30;;;;;;;;;;;12.70;99.90;;;;;;6212668;23;19914;-90
2023/03/23 07:24:56;;;;;;;;;;;12.70;99.90;;;;;;6186676;23;19900;-91
2023/03/23 07:27:21;;;;;;;;;;;12.80;99.90;;;;;;6213535;23;19927;-90
2023/03/23 07:29:47;;;;;;;;;;;12.80;99.90;;;;;;6186623;23;19900;-90
2023/03/23 07:32:12;;;;;;;;;;;12.80;99.90;;;;;;6186660;23;19900;-90
2023/03/23 07:34:38;;;;;;;;;;;12.70;99.90;;;;;;6214668;23;19907;-91
2023/03/23 07:37:04;;;;;;;;;;;12.90;99.90;;;;;;6213606;23;19931;-90
2023/03/23 07:39:30;;;;;;;;;;;12.90;99.90;;;;;;6213011;23;19912;-90
2023/03/23 07:41:55;;;;;;;;;;;13.00;99.90;;;;;;6212780;23;19962;-92
2023/03/23 07:44:21;;;;;;;;;;;12.90;99.90;;;;;;6213221;23;19899;-90
2023/03/23 07:46:47;;;;;;;;;;;13.00;99.90;;;;;;6213281;23;19904;-90
2023/03/23 07:49:13;;;;;;;;;;;13.10;99.90;;;;;;6212961;23;19900;-89
2023/03/23 07:51:39;;;;;;;;;;;13.10;99.90;;;;;;6186159;23;20245;-91
2023/03/23 07:54:07;;;;;;;;;;;13.20;99.90;;;;;;6186549;23;19900;-90
2023/03/23 07:56:33;;;;;;;;;;;13.20;99.90;;;;;;6213255;23;19969;-90
2023/03/23 07:58:59;;;;;;;;;;;13.30;99.90;;;;;;6187345;23;19899;-90
2023/03/23 08:01:24;;;;;;;;;;;13.30;99.90;;;;;;6212489;23;19953;-90
2023/03/23 08:03:51;;;;;;;;;;;13.30;99.90;;;;;;6213100;23;19907;-91
2023/03/23 08:06:17;;;;;;;;;;;13.30;99.90;;;;;;6185869;23;19904;-90
2023/03/23 08:08:42;;;;;;;;;;;13.30;99.90;;;;;;6212144;23;19907;-91
2023/03/23 08:11:08;;;;;;;;;;;13.40;99.90;;;;;;6186405;23;20276;-92
2023/03/23 08:13:35;;;;;;;;;;;13.40;99.90;;;;;;6212471;23;19946;-91
2023/03/23 08:16:03;;;;;;;;;;;13.40;99.90;;;;;;6213513;23;19971;-90
2023/03/23 08:18:29;;;;;;;;;;;13.40;99.90;;;;;;6213551;23;19915;-90
2023/03/23 08:20:55;;;;;;;;;;;13.40;99.90;;;;;;6211226;23;20276;-89
2023/03/23 08:23:21;;;;;;;;;;;13.40;99.90;;;;;;6212532;23;19900;-91
2023/03/23 08:25:47;;;;;;;;;;;13.40;99.90;;;;;;6186478;23;20395;-91
2023/03/23 08:28:13;;;;;;;;;;;13.40;99.90;;;;;;6212268;23;20336;-92
2023/03/23 08:30:40;;;;;;;;;;;13.40;99.90;;;;;;6185576;23;20398;-91
2023/03/23 08:33:05;;;;;;;;;;;13.50;99.90;;;;;;6212522;23;19926;-89
2023/03/23 08:35:31;;;;;;;;;;;13.60;99.90;;;;;;6213187;23;19927;-90
2023/03/23 08:37:57;;;;;;;;;;;13.70;99.90;;;;;;6185223;23;19950;-91
2023/03/23 08:40:23;;;;;;;;;;;13.80;99.90;;;;;;6185779;23;19946;-91
2023/03/23 08:42:49;;;;;;;;;;;13.90;99.90;;;;;;6185865;23;19912;-91
2023/03/23 08:45:16;;;;;;;;;;;13.90;99.90;;;;;;6212731;23;19907;-91
2023/03/23 08:47:42;;;;;;;;;;;13.90;99.90;;;;;;6212541;23;19977;-92
2023/03/23 08:50:10;;;;;;;;;;;13.90;99.90;;;;;;6186011;23;19899;-92
2023/03/23 08:52:37;;;;;;;;;;;13.90;99.90;;;;;;6185865;23;19970;-90
2023/03/23 08:55:03;;;;;;;;;;;13.90;99.90;;;;;;6213425;23;20348;-90
2023/03/23 08:57:29;;;;;;;;;;;13.80;99.90;;;;;;6212322;23;20328;-90
2023/03/23 08:59:59;;;;;;;;;;;13.80;99.90;;;;;;6212070;23;19908;-90
2023/03/23 09:02:25;;;;;;;;;;;13.70;99.90;;;;;;6186501;23;20308;-91
2023/03/23 09:04:52;;;;;;;;;;;13.70;99.90;;;;;;6186250;23;19949;-91
2023/03/23 09:07:18;;;;;;;;;;;13.70;99.90;;;;;;6213046;23;19904;-91
2023/03/23 09:09:43;;;;;;;;;;;13.40;99.90;;;;;;6186900;23;19900;-91
2023/03/23 09:12:09;;;;;;;;;;;13.60;99.90;;;;;;6186411;23;19900;-92
2023/03/23 09:14:36;;;;;;;;;;;13.60;99.90;;;;;;6187376;23;19911;-93
2023/03/23 09:17:02;;;;;;;;;;;13.60;99.90;;;;;;6186975;23;19899;-90
2023/03/23 09:19:28;;;;;;;;;;;13.70;99.90;;;;;;6186367;23;20033;-91
2023/03/23 09:21:57;;;;;;;;;;;13.60;99.90;;;;;;6212905;23;20313;-92
2023/03/23 09:24:23;;;;;;;;;;;13.60;99.90;;;;;;6186351;23;19903;-92
2023/03/23 09:26:52;;;;;;;;;;;13.70;99.90;;;;;;6212962;23;19927;-92
2023/03/23 09:29:18;;;;;;;;;;;13.40;99.90;;;;;;6212446;23;19904;-91
2023/03/23 09:31:46;;;;;;;;;;;13.80;99.90;;;;;;6185851;23;20340;-91
2023/03/23 09:34:12;;;;;;;;;;;13.80;99.90;;;;;;6212279;23;20324;-91
2023/03/23 09:36:38;;;;;;;;;;;13.90;99.90;;;;;;6186087;23;19915;-91
2023/03/23 09:39:07;;;;;;;;;;;13.90;99.90;;;;;;6187088;23;19907;-93
2023/03/23 09:41:33;;;;;;;;;;;14.00;99.90;;;;;;6213347;23;19915;-91
2023/03/23 09:44:17;;;;;;;;;;;14.00;99.90;;;;;;6185957;23;19903;-92
2023/03/23 09:46:58;;;;;;;;;;;14.00;99.90;;;;;;6186050;23;19938;-91
2023/03/23 09:49:46;;;;;;;;;;;14.10;99.90;;;;;;6212129;23;19900;-93
2023/03/23 09:52:16;;;;;;;;;;;14.10;99.90;;;;;;6114676;23;19900;-90
2023/03/23 09:54:53;;;;;;;;;;;14.20;99.90;;;;;;6211539;23;20347;-91
2023/03/23 09:57:27;;;;;;;;;;;14.30;99.90;;;;;;6212575;23;19899;-91
2023/03/23 10:00:07;;;;;;;;;;;14.40;99.90;;;;;;6185522;23;19900;-90
2023/03/23 10:02:38;;;;;;;;;;;14.50;99.90;;;;;;6185478;23;20248;-91
2023/03/23 10:05:24;;;;;;;;;;;15.00;99.90;;;;;;6185990;23;19900;-92
2023/03/23 10:07:49;;;;;;;;;;;14.60;99.90;;;;;;6184622;23;19903;-92
2023/03/23 10:10:15;;;;;;;;;;;14.60;99.90;;;;;;6212746;23;19900;-92
2023/03/23 10:12:56;;;;;;;;;;;14.70;99.90;;;;;;6185384;23;19943;-92
2023/03/23 10:15:34;;;;;;;;;;;14.90;99.90;;;;;;6185056;23;20409;-90
2023/03/23 10:18:29;;;;;;;;;;;14.80;99.90;;;;;;6185291;23;19900;-92
2023/03/23 10:21:04;;;;;;;;;;;14.70;99.90;;;;;;6154081;23;19907;-91
2023/03/23 10:23:42;;;;;;;;;;;14.80;99.90;;;;;;6212070;23;19910;-91
2023/03/23 10:26:17;;;;;;;;;;;14.80;99.90;;;;;;6187890;23;20349;-92
2023/03/23 10:29:05;;;;;;;;;;;14.90;99.90;;;;;;6184894;23;20344;-92
2023/03/23 10:31:34;;;;;;;;;;;14.90;99.90;;;;;;6165800;23;20222;-91
2023/03/23 10:34:03;;;;;;;;;;;15.00;99.90;;;;;;6211920;23;19904;-92
2023/03/23 10:36:31;;;;;;;;;;;14.90;99.90;;;;;;6211150;23;20200;-91
2023/03/23 10:39:09;;;;;;;;;;;15.00;99.90;;;;;;6186238;23;19958;-90
2023/03/23 10:41:34;;;;;;;;;;;15.10;99.90;;;;;;6185788;23;20396;-91
2023/03/23 10:44:01;;;;;;;;;;;15.00;99.90;;;;;;6185178;23;19904;-91
2023/03/23 10:46:39;;;;;;;;;;;15.10;99.90;;;;;;6185408;23;19983;-91
2023/03/23 10:49:11;;;;;;;;;;;15.00;99.90;;;;;;6186458;23;20272;-91
2023/03/23 10:51:40;;;;;;;;;;;15.10;99.90;;;;;;6186543;23;19957;-91
2023/03/23 10:54:06;;;;;;;;;;;15.50;99.90;;;;;;6186273;23;19982;-92
2023/03/23 10:56:40;;;;;;;;;;;15.10;99.90;;;;;;6185480;23;19954;-90
2023/03/23 10:59:13;;;;;;;;;;;15.10;99.90;;;;;;6212873;23;20329;-92
2023/03/23 11:01:42;;;;;;;;;;;14.90;99.90;;;;;;6186150;23;19954;-91
2023/03/23 11:04:12;;;;;;;;;;;14.80;99.90;;;;;;6186079;23;19900;-92
2023/03/23 11:06:44;;;;;;;;;;;14.80;99.90;;;;;;6186359;23;19904;-92
2023/03/23 11:09:11;;;;;;;;;;;14.80;99.90;;;;;;6186602;23;19904;-91
2023/03/23 11:11:42;;;;;;;;;;;14.80;99.90;;;;;;6212989;23;19904;-92
2023/03/23 11:14:17;;;;;;;;;;;14.80;99.90;;;;;;6186300;23;19911;-93
2023/03/23 11:16:46;;;;;;;;;;;14.90;99.90;;;;;;6185994;23;19900;-91
2023/03/23 11:19:13;;;;;;;;;;;15.00;99.90;;;;;;6185385;23;19899;-90
2023/03/23 11:21:39;;;;;;;;;;;15.00;99.90;;;;;;6186316;23;20340;-92
2023/03/23 11:24:05;;;;;;;;;;;14.90;99.90;;;;;;6185429;23;19900;-91
2023/03/23 11:26:33;;;;;;;;;;;15.30;99.90;;;;;;6185452;23;20159;-90
2023/03/23 11:29:18;;;;;;;;;;;14.80;99.90;;;;;;6185747;23;19907;-91
2023/03/23 11:31:45;;;;;;;;;;;14.90;99.90;;;;;;6211904;23;19907;-93
2023/03/23 11:34:16;;;;;;;;;;;14.90;99.90;;;;;;6186523;23;19935;-91
2023/03/23 11:36:52;;;;;;;;;;;14.90;99.90;;;;;;6185852;23;20328;-91
2023/03/23 11:39:23;;;;;;;;;;;15.10;99.90;;;;;;6185583;23;19991;-91
2023/03/23 11:41:49;;;;;;;;;;;15.10;99.90;;;;;;6185197;23;19907;-92
2023/03/23 11:44:15;;;;;;;;;;;15.00;99.90;;;;;;6211807;23;19942;-93
2023/03/23 11:46:41;;;;;;;;;;;14.90;99.90;;;;;;6186093;23;19915;-91
2023/03/23 11:49:20;;;;;;;;;;;14.80;99.90;;;;;;6185293;23;19904;-92
2023/03/23 11:51:51;;;;;;;;;;;14.80;99.90;;;;;;6185194;23;19906;-91
2023/03/23 11:54:28;;;;;;;;;;;14.90;99.90;;;;;;6211968;23;19907;-91
2023/03/23 11:56:59;;;;;;;;;;;14.80;99.90;;;;;;6213529;23;19927;-91
2023/03/23 11:59:31;;;;;;;;;;;14.80;99.90;;;;;;6187090;23;19903;-91
2023/03/23 12:02:09;;;;;;;;;;;14.80;99.90;;;;;;6186946;23;19907;-91
2023/03/23 12:04:37;;;;;;;;;;;14.80;99.90;;;;;;6187155;23;19900;-91
2023/03/23 12:07:18;;;;;;;;;;;14.80;99.90;;;;;;6213570;23;20116;-92
2023/03/23 12:10:08;;;;;;;;;;;14.90;99.90;;;;;;6187355;23;19900;-93
2023/03/23 12:12:37;;;;;;;;;;;15.00;99.90;;;;;;6186199;23;19903;-92
2023/03/23 12:15:15;;;;;;;;;;;15.20;99.90;;;;;;6187327;23;19900;-90
2023/03/23 12:17:40;;;;;;;;;;;15.40;99.90;;;;;;6187990;23;19900;-92
2023/03/23 12:20:14;;;;;;;;;;;15.40;99.90;;;;;;6212948;23;19997;-91
2023/03/23 12:22:46;;;;;;;;;;;15.60;99.90;;;;;;6187514;23;19908;-92
2023/03/23 12:25:20;;;;;;;;;;;15.30;99.90;;;;;;6187772;23;20240;-92
2023/03/23 12:28:03;;;;;;;;;;;16.40;99.90;;;;;;6187508;23;19900;-92
2023/03/23 12:30:35;;;;;;;;;;;15.40;99.90;;;;;;6186792;23;19907;-93
2023/03/23 12:33:08;;;;;;;;;;;15.50;99.90;;;;;;6213300;23;19900;-91
2023/03/23 12:35:46;;;;;;;;;;;15.50;99.90;;;;;;6186557;23;19900;-92
2023/03/23 12:38:28;;;;;;;;;;;15.60;99.90;;;;;;6188068;23;19900;-92
2023/03/23 12:41:09;;;;;;;;;;;15.80;99.90;;;;;;6186378;23;19904;-91
2023/03/23 12:43:43;;;;;;;;;;;15.90;99.90;;;;;;6212920;23;19918;-91
2023/03/23 12:46:15;;;;;;;;;;;16.00;99.90;;;;;;6212921;23;19900;-91
2023/03/23 12:48:48;;;;;;;;;;;16.00;99.90;;;;;;6186975;23;20236;-92
2023/03/23 12:51:32;;;;;;;;;;;16.00;99.90;;;;;;6187967;23;19979;-91
2023/03/23 12:54:22;;;;;;;;;;;16.10;99.90;;;;;;6186241;23;19926;-92
2023/03/23 12:56:48;;;;;;;;;;;16.20;99.90;;;;;;6212878;23;19903;-91
2023/03/23 12:59:22;;;;;;;;;;;16.20;99.90;;;;;;6187301;23;19900;-91
2023/03/23 13:01:52;;;;;;;;;;;16.20;99.90;;;;;;6185503;23;19907;-91
2023/03/23 13:04:23;;;;;;;;;;;16.20;99.90;;;;;;6185833;23;19904;-92
2023/03/23 13:06:49;;;;;;;;;;;16.30;99.90;;;;;;6185974;23;19935;-91
2023/03/23 13:09:18;;;;;;;;;;;16.30;99.90;;;;;;6187123;23;19900;-92
2023/03/23 13:11:46;;;;;;;;;;;16.30;99.90;;;;;;6187514;23;19900;-92
2023/03/23 13:14:11;;;;;;;;;;;16.30;99.90;;;;;;6186028;23;19899;-92
2023/03/23 13:16:37;;;;;;;;;;;16.30;99.90;;;;;;6212880;23;19907;-92
2023/03/23 13:19:22;;;;;;;;;;;16.30;99.90;;;;;;6218227;23;19900;-91
2023/03/23 13:21:56;;;;;;;;;;;16.20;99.90;;;;;;6191386;23;19918;-92
2023/03/23 13:24:25;;;;;;;;;;;16.30;99.90;;;;;;6193334;23;20313;-90
2023/03/23 13:26:51;;;;;;;;;;;16.30;99.90;;;;;;6187083;23;19904;-89
2023/03/23 13:29:19;;;;;;;;;;;16.20;99.90;;;;;;6212902;23;19919;-92
2023/03/23 13:31:46;;;;;;;;;;;16.80;99.90;;;;;;6186894;23;19900;-91
2023/03/23 13:34:25;;;;;;;;;;;16.20;99.90;;;;;;6185960;23;19975;-92
2023/03/23 13:36:53;;;;;;;;;;;16.20;99.90;;;;;;6185752;23;19928;-93
2023/03/23 13:39:33;;;;;;;;;;;16.30;99.90;;;;;;6212512;23;19900;-93
2023/03/23 13:42:08;;;;;;;;;;;16.40;99.90;;;;;;6184154;23;19915;-91
2023/03/23 13:44:49;;;;;;;;;;;16.30;99.90;;;;;;6185862;23;19907;-92
2023/03/23 13:47:20;;;;;;;;;;;18.40;99.90;;;;;;6213615;23;20304;-93
2023/03/23 13:50:04;;;;;;;;;;;16.20;99.90;;;;;;6212996;23;19900;-91
2023/03/23 13:52:56;;;;;;;;;;;16.20;99.90;;;;;;6185568;23;19907;-91
2023/03/23 13:55:37;;;;;;;;;;;16.10;99.90;;;;;;6178972;23;20346;-91
2023/03/23 13:58:02;;;;;;;;;;;16.10;99.90;;;;;;6185032;23;19900;-92
2023/03/23 14:00:34;;;;;;;;;;;15.90;99.90;;;;;;6184715;23;19900;-91
2023/03/23 14:03:05;;;;;;;;;;;15.70;99.90;;;;;;6185023;23;19908;-89
2023/03/23 14:05:54;;;;;;;;;;;15.80;99.90;;;;;;6211639;23;19975;-90
2023/03/23 14:08:24;;;;;;;;;;;15.60;99.90;;;;;;6166751;23;19909;-90
2023/03/23 14:10:59;;;;;;;;;;;15.50;99.90;;;;;;6186206;23;19950;-88
2023/03/23 14:13:29;;;;;;;;;;;15.40;99.90;;;;;;6211007;23;19899;-91
2023/03/23 14:15:59;;;;;;;;;;;15.30;99.90;;;;;;6211964;23;19931;-91
2023/03/23 14:18:51;;;;;;;;;;;15.30;99.90;;;;;;6184255;23;20293;-93
2023/03/23 14:21:21;;;;;;;;;;;15.40;99.90;;;;;;6205298;23;19990;-91
2023/03/23 14:23:46;;;;;;;;;;;15.50;99.90;;;;;;6212659;23;19979;-92
2023/03/23 14:26:15;;;;;;;;;;;15.80;99.90;;;;;;6185683;23;19943;-91
2023/03/23 14:28:42;;;;;;;;;;;15.50;99.90;;;;;;6185585;23;20261;-92